createdAt,value
2019-01-24T00:02:39.824Z,-8.20
2019-01-24T00:07:47.002Z,-8.30
2019-01-24T00:12:54.236Z,-8.30
2019-01-24T00:18:01.442Z,-8.30
2019-01-24T00:23:13.671Z,-8.30
2019-01-24T00:28:21.384Z,-8.40
2019-01-24T00:33:29.463Z,-8.40
2019-01-24T00:38:36.631Z,-8.50
2019-01-24T00:43:44.450Z,-8.50
2019-01-24T00:48:51.597Z,-8.60
2019-01-24T00:53:58.788Z,-8.50
2019-01-24T00:59:06.047Z,-8.60
2019-01-24T01:04:13.629Z,-8.60
2019-01-24T01:09:20.771Z,-8.60
2019-01-24T01:14:27.948Z,-8.60
2019-01-24T01:19:35.023Z,-8.60
2019-01-24T01:24:42.274Z,-8.60
2019-01-24T01:29:49.481Z,-8.60
2019-01-24T01:39:59.825Z,-8.60
2019-01-24T01:45:09.545Z,-8.60
2019-01-24T01:50:19.421Z,-8.70
2019-01-24T01:55:26.545Z,-8.70
2019-01-24T02:00:34.912Z,-8.80
2019-01-24T02:05:42.002Z,-8.80
2019-01-24T02:10:49.300Z,-8.80
2019-01-24T02:15:56.907Z,-8.90
2019-01-24T02:21:04.826Z,-8.90
2019-01-24T02:26:11.987Z,-9.00
2019-01-24T02:31:19.317Z,-9.00
2019-01-24T02:36:26.616Z,-9.10
2019-01-24T02:41:33.802Z,-9.10
2019-01-24T02:46:42.117Z,-9.20
2019-01-24T02:51:49.735Z,-9.20
2019-01-24T02:56:56.818Z,-9.30
2019-01-24T03:02:03.943Z,-9.40
2019-01-24T03:07:11.234Z,-9.40
2019-01-24T03:12:18.426Z,-9.40
2019-01-24T03:17:26.976Z,-9.40
2019-01-24T03:22:34.273Z,-9.40
2019-01-24T03:27:41.479Z,-9.50
2019-01-24T03:32:48.917Z,-9.50
2019-01-24T03:37:57.650Z,-9.50
2019-01-24T03:43:05.962Z,-9.50
2019-01-24T03:48:13.460Z,-9.60
2019-01-24T03:53:20.654Z,-9.80
2019-01-24T03:58:28.020Z,-9.90
2019-01-24T04:03:35.470Z,-10.00
2019-01-24T04:08:42.795Z,-10.10
2019-01-24T04:13:50.028Z,-10.10
2019-01-24T04:18:57.114Z,-10.10
2019-01-24T04:24:04.737Z,-10.20
2019-01-24T04:29:11.821Z,-10.10
2019-01-24T04:34:18.932Z,-10.10
2019-01-24T04:39:26.044Z,-10.10
2019-01-24T04:44:33.179Z,-10.10
2019-01-24T04:49:40.436Z,-10.10
2019-01-24T04:54:47.947Z,-10.00
2019-01-24T04:59:55.174Z,-10.00
2019-01-24T05:05:02.385Z,-10.00
2019-01-24T05:10:09.613Z,-10.00
2019-01-24T05:15:17.015Z,-10.00
2019-01-24T05:20:32.989Z,-10.10
2019-01-24T05:25:40.092Z,-10.00
2019-01-24T05:30:47.368Z,-10.10
2019-01-24T05:35:55.022Z,-10.10
2019-01-24T05:41:04.473Z,-10.10
2019-01-24T05:46:11.534Z,-10.20
2019-01-24T05:51:18.747Z,-10.20
2019-01-24T05:56:25.926Z,-10.30
2019-01-24T06:01:33.582Z,-10.30
2019-01-24T06:06:41.891Z,-10.30
2019-01-24T06:11:49.078Z,-10.30
2019-01-24T06:16:56.514Z,-10.20
2019-01-24T06:22:03.611Z,-10.10
2019-01-24T06:27:10.697Z,-10.10
2019-01-24T06:32:17.811Z,-10.10
2019-01-24T06:37:24.907Z,-10.10
2019-01-24T06:42:32.006Z,-10.10
2019-01-24T06:47:39.194Z,-10.00
2019-01-24T06:52:46.397Z,-10.00
2019-01-24T06:57:53.453Z,-10.00
2019-01-24T07:03:01.648Z,-10.00
2019-01-24T07:08:08.838Z,-9.90
2019-01-24T07:13:16.067Z,-9.80
2019-01-24T07:18:23.334Z,-9.70
2019-01-24T07:23:30.542Z,-9.60
2019-01-24T07:28:37.619Z,-9.50
2019-01-24T07:33:44.828Z,-9.40
2019-01-24T07:38:52.010Z,-9.30
2019-01-24T07:43:59.393Z,-9.20
2019-01-24T07:49:06.952Z,-9.00
2019-01-24T07:54:14.170Z,-8.90
2019-01-24T07:59:22.007Z,-8.70
2019-01-24T08:04:29.222Z,-8.60
2019-01-24T08:09:36.323Z,-8.50
2019-01-24T08:14:43.515Z,-8.10
2019-01-24T08:19:50.579Z,-7.70
2019-01-24T08:24:57.700Z,-7.30
2019-01-24T08:30:09.298Z,-7.00
2019-01-24T08:35:16.653Z,-6.90
2019-01-24T08:40:24.075Z,-6.90
2019-01-24T08:45:31.166Z,-6.80
2019-01-24T08:50:38.235Z,-6.80
2019-01-24T08:55:45.564Z,-6.70
2019-01-24T09:00:52.647Z,-6.50
2019-01-24T09:05:59.714Z,-6.50
2019-01-24T09:11:07.893Z,-6.40
2019-01-24T09:16:14.976Z,-6.30
2019-01-24T09:21:22.388Z,-6.10
2019-01-24T09:26:29.815Z,-5.90
2019-01-24T09:31:37.025Z,-5.80
2019-01-24T09:36:44.332Z,-5.70
2019-01-24T09:41:51.487Z,-5.60
2019-01-24T09:46:58.546Z,-5.50
2019-01-24T09:52:06.165Z,-5.30
2019-01-24T09:57:13.371Z,-5.10
2019-01-24T10:02:20.544Z,-5.00
2019-01-24T10:07:27.635Z,-5.00
2019-01-24T10:12:35.358Z,-4.80
2019-01-24T10:17:42.574Z,-4.50
2019-01-24T10:22:49.987Z,-4.60
2019-01-24T10:27:57.864Z,-4.70
2019-01-24T10:33:06.110Z,-4.90
2019-01-24T10:38:13.513Z,-5.30
2019-01-24T10:43:20.622Z,-5.40
2019-01-24T10:48:27.839Z,-5.50
2019-01-24T10:53:35.140Z,-5.30
2019-01-24T10:58:42.752Z,-5.20
2019-01-24T11:03:49.826Z,-5.20
2019-01-24T11:08:56.901Z,-5.50
2019-01-24T11:14:04.135Z,-5.70
2019-01-24T11:19:11.664Z,-5.90
2019-01-24T11:24:18.743Z,-6.00
2019-01-24T11:29:27.135Z,-6.00
2019-01-24T11:34:34.345Z,-5.90
2019-01-24T11:39:41.450Z,-6.10
2019-01-24T11:44:50.564Z,-6.10
2019-01-24T11:49:57.795Z,-6.10
2019-01-24T11:55:05.412Z,-6.20
2019-01-24T12:00:28.585Z,-6.60
2019-01-24T12:05:35.788Z,-6.80
2019-01-24T12:10:43.017Z,-6.80
2019-01-24T12:15:50.646Z,-6.90
2019-01-24T12:20:57.838Z,-6.90
2019-01-24T12:26:09.014Z,-7.00
2019-01-24T12:31:16.197Z,-7.00
2019-01-24T12:36:23.674Z,-6.90
2019-01-24T12:41:30.790Z,-6.90
2019-01-24T12:46:37.843Z,-6.80
2019-01-24T12:51:45.047Z,-6.70
2019-01-24T12:56:52.270Z,-6.80
2019-01-24T13:02:00.096Z,-6.90
2019-01-24T13:07:07.918Z,-6.80
2019-01-24T13:12:15.554Z,-6.90
2019-01-24T13:17:23.323Z,-6.90
2019-01-24T13:22:30.674Z,-6.90
2019-01-24T13:27:38.168Z,-6.80
2019-01-24T13:32:45.542Z,-6.80
2019-01-24T13:37:52.729Z,-6.80
2019-01-24T13:43:00.861Z,-6.80
2019-01-24T13:48:08.177Z,-6.90
2019-01-24T13:53:15.529Z,-7.00
2019-01-24T13:58:22.725Z,-7.00
2019-01-24T14:04:00.049Z,-7.00
2019-01-24T14:09:10.388Z,-7.00
2019-01-24T14:14:17.695Z,-7.00
2019-01-24T14:19:24.798Z,-7.00
2019-01-24T14:24:32.988Z,-6.90
2019-01-24T14:29:40.199Z,-6.90
2019-01-24T14:34:47.318Z,-6.90
2019-01-24T14:39:55.942Z,-7.00
2019-01-24T14:45:03.254Z,-7.00
2019-01-24T14:50:13.511Z,-7.00
2019-01-24T14:55:20.793Z,-7.00
2019-01-24T15:00:30.335Z,-7.00
2019-01-24T15:05:37.811Z,-6.90
2019-01-24T15:10:45.073Z,-7.00
2019-01-24T15:15:52.298Z,-7.10
2019-01-24T15:20:59.470Z,-7.10
2019-01-24T15:26:08.355Z,-7.10
2019-01-24T15:31:16.067Z,-7.10
2019-01-24T15:36:23.401Z,-7.10
2019-01-24T15:41:30.793Z,-7.00
2019-01-24T15:46:38.313Z,-7.10
2019-01-24T15:51:45.760Z,-7.10
2019-01-24T15:56:53.221Z,-7.10
2019-01-24T16:02:00.408Z,-7.10
2019-01-24T16:07:07.522Z,-7.00
2019-01-24T16:12:14.649Z,-7.00
2019-01-24T16:17:22.023Z,-7.00
2019-01-24T16:22:29.693Z,-7.00
2019-01-24T16:27:36.949Z,-6.90
2019-01-24T16:32:44.442Z,-7.00
2019-01-24T16:37:51.514Z,-6.90
2019-01-24T16:42:59.074Z,-7.00
2019-01-24T16:48:07.082Z,-7.00
2019-01-24T16:53:14.513Z,-7.00
2019-01-24T16:58:21.604Z,-7.00
2019-01-24T17:03:28.814Z,-7.00
2019-01-24T17:08:35.944Z,-7.10
2019-01-24T17:13:43.160Z,-7.10
2019-01-24T17:18:51.393Z,-7.20
2019-01-24T17:23:59.579Z,-7.30
2019-01-24T17:29:06.994Z,-7.40
2019-01-24T17:34:14.111Z,-7.60
2019-01-24T17:39:21.353Z,-7.70
2019-01-24T17:44:28.456Z,-7.80
2019-01-24T17:49:35.778Z,-7.90
2019-01-24T17:54:43.171Z,-8.00
2019-01-24T17:59:50.383Z,-8.10
2019-01-24T18:04:57.667Z,-8.20
2019-01-24T18:10:06.615Z,-8.30
2019-01-24T18:15:17.955Z,-8.30
2019-01-24T18:20:27.154Z,-8.40
2019-01-24T18:25:34.390Z,-8.40
2019-01-24T18:30:41.823Z,-8.50
2019-01-24T18:35:49.384Z,-8.50
2019-01-24T18:40:58.103Z,-8.50
2019-01-24T18:46:07.229Z,-8.50
2019-01-24T18:51:16.531Z,-8.50
2019-01-24T18:56:23.953Z,-8.60
2019-01-24T19:01:31.275Z,-8.60
2019-01-24T19:06:38.485Z,-8.60
2019-01-24T19:11:45.900Z,-8.60
2019-01-24T19:16:54.001Z,-8.60
2019-01-24T19:22:01.642Z,-8.60
2019-01-24T19:27:10.992Z,-8.60
2019-01-24T19:32:18.231Z,-8.60
2019-01-24T19:37:25.491Z,-8.60
2019-01-24T19:48:18.757Z,-8.60
2019-01-24T19:53:26.359Z,-8.70
2019-01-24T19:58:33.563Z,-8.70
2019-01-24T20:03:41.124Z,-8.70
2019-01-24T20:08:49.353Z,-8.70
2019-01-24T20:13:56.668Z,-8.70
2019-01-24T20:19:04.062Z,-8.70
2019-01-24T20:24:12.031Z,-8.70
2019-01-24T20:29:20.668Z,-8.70
2019-01-24T20:34:27.973Z,-8.70
2019-01-24T20:39:37.193Z,-8.70
2019-01-24T20:44:44.551Z,-8.70
2019-01-24T20:49:52.628Z,-8.70
2019-01-24T20:54:59.855Z,-8.70
2019-01-24T21:00:15.632Z,-8.70
2019-01-24T21:05:23.459Z,-8.70
2019-01-24T21:10:31.148Z,-8.80
2019-01-24T21:15:38.264Z,-8.70
2019-01-24T21:20:46.501Z,-8.80
2019-01-24T21:25:53.805Z,-8.80
2019-01-24T21:31:01.018Z,-8.80
2019-01-24T21:36:08.937Z,-8.80
2019-01-24T21:41:17.120Z,-8.90
2019-01-24T21:46:24.672Z,-8.90
2019-01-24T21:51:32.341Z,-8.90
2019-01-24T21:56:39.537Z,-8.90
2019-01-24T22:01:47.118Z,-8.90
2019-01-24T22:06:56.248Z,-9.00
2019-01-24T22:12:04.503Z,-9.00
2019-01-24T22:17:11.627Z,-9.00
2019-01-24T22:22:18.775Z,-9.00
2019-01-24T22:27:26.251Z,-9.00
2019-01-24T22:32:33.383Z,-9.00
2019-01-24T22:37:41.094Z,-9.00
2019-01-24T22:42:48.402Z,-9.00
2019-01-24T22:47:55.715Z,-9.00
2019-01-24T22:53:03.535Z,-9.10
2019-01-24T22:58:10.861Z,-9.10
2019-01-24T23:03:21.361Z,-9.10
2019-01-24T23:08:28.838Z,-9.10
2019-01-24T23:13:37.143Z,-9.10
2019-01-24T23:18:44.432Z,-9.20
2019-01-24T23:23:51.685Z,-9.20
2019-01-24T23:29:00.585Z,-9.20
2019-01-24T23:34:07.894Z,-9.20
2019-01-24T23:39:15.046Z,-9.30
2019-01-24T23:44:22.216Z,-9.30
2019-01-24T23:49:29.352Z,-9.30
2019-01-24T23:54:36.571Z,-9.30
2019-01-24T23:59:43.703Z,-9.30
